Amelia, Nebraska
Current Conditions -  °F | °C
As of 8:35 AM on Thursday 30 Oct 2014 (Local Time) from KONL Reporting Station
Clear Clear  
Wind Chill:   Ceiling: Unl
Heat Index:   Visibility: 10mi
Dew Point:   Wind: 16mph
Humidity: 74%   Direction: 300°WNW
Pressure: 30.12"   Gusts: NA
Location:  42.24°N, 98.91°W
Report Text: KONL 301335Z AUTO 30014KT 10SM CLR 07/03 A3012 RMK AO2 T00740030
Loading
Personal Weather Stations






























Interactive Weather Map
Tropical Storm Tracking
New forecast layout! Learn more

10-Day Weather Forecast

Advertisements
Track Severe Weather on mobile